Time;durP1;ratioP1;P1;durP2;ratioP2;P2;SDS_P1;SDS_P2;PMS_P1;PMS_P2;Temp;Humidity;BMP_temperature;BMP_pressure;BME280_temperature;BME280_humidity;BME280_pressure;Samples;Min_cycle;Max_cycle;Signal;HPM_P1;HPM_P2
2021/04/21 00:02:01;;;;;;;13.03;11.70;;;8.10;77.10;;;;;;5037399;28;20455;-83
2021/04/21 00:04:30;;;;;;;14.57;11.70;;;8.10;77.10;;;;;;5038396;28;20831;-83
2021/04/21 00:07:00;;;;;;;12.30;10.97;;;8.10;77.20;;;;;;5038706;28;20776;-83
2021/04/21 00:09:28;;;;;;;13.00;11.70;;;8.00;77.10;;;;;;5038882;28;20458;-83
2021/04/21 00:11:57;;;;;;;13.60;12.30;;;8.00;77.30;;;;;;5036990;28;20447;-83
2021/04/21 00:14:26;;;;;;;13.30;12.00;;;7.90;77.40;;;;;;5036992;28;20450;-82
2021/04/21 00:16:58;;;;;;;15.43;11.77;;;7.90;77.50;;;;;;5036947;28;20462;-81
2021/04/21 00:19:27;;;;;;;13.07;11.87;;;7.80;77.50;;;;;;5035480;28;20835;-81
2021/04/21 00:21:58;;;;;;;13.60;12.20;;;7.80;77.60;;;;;;5037147;28;20496;-81
2021/04/21 00:24:26;;;;;;;13.80;12.50;;;7.80;77.80;;;;;;5036575;28;20442;-81
2021/04/21 00:26:54;;;;;;;13.23;11.93;;;7.70;77.80;;;;;;5038052;28;20468;-81
2021/04/21 00:29:21;;;;;;;11.93;10.83;;;7.70;77.90;;;;;;5036104;28;20470;-81
2021/04/21 00:31:51;;;;;;;11.40;10.30;;;7.60;78.00;;;;;;5035112;28;20480;-81
2021/04/21 00:34:20;;;;;;;11.40;10.20;;;7.60;78.20;;;;;;5034448;28;20533;-81
2021/04/21 00:36:51;;;;;;;10.80;9.70;;;7.50;78.30;;;;;;5036669;28;20447;-81
2021/04/21 00:39:20;;;;;;;11.53;10.43;;;7.50;78.40;;;;;;5035761;28;20560;-81
2021/04/21 00:41:59;;;;;;;13.33;11.67;;;7.50;78.60;;;;;;5036481;28;20523;-81
2021/04/21 00:44:40;;;;;;;11.70;10.50;;;7.40;78.60;;;;;;5036519;28;20473;-81
2021/04/21 00:47:11;;;;;;;12.77;11.53;;;7.40;78.70;;;;;;5036783;28;20435;-81
2021/04/21 00:49:49;;;;;;;11.73;10.20;;;7.30;78.80;;;;;;5036272;28;20870;-81
2021/04/21 00:52:23;;;;;;;11.37;10.37;;;7.30;78.90;;;;;;5036595;28;20457;-83
2021/04/21 00:54:59;;;;;;;10.53;9.53;;;7.20;79.00;;;;;;5037434;28;20448;-82
2021/04/21 00:57:32;;;;;;;12.03;10.93;;;7.20;79.10;;;;;;5037467;28;20473;-82
2021/04/21 01:00:08;;;;;;;17.20;11.80;;;7.10;79.10;;;;;;5035987;28;21005;-82
2021/04/21 01:02:52;;;;;;;11.88;10.68;;;7.10;79.20;;;;;;5036088;28;20846;-82
2021/04/21 01:05:24;;;;;;;12.13;10.67;;;7.10;80.10;;;;;;5035984;28;20213;-82
2021/04/21 01:07:56;;;;;;;12.63;10.30;;;7.10;79.80;;;;;;5036072;28;20482;-82
2021/04/21 01:10:27;;;;;;;10.93;9.93;;;7.10;79.90;;;;;;5037470;28;20465;-82
2021/04/21 01:12:59;;;;;;;11.07;10.00;;;7.00;79.80;;;;;;5037116;28;20449;-82
2021/04/21 01:15:29;;;;;;;12.20;10.87;;;7.00;80.00;;;;;;5036437;28;20547;-82
2021/04/21 01:18:00;;;;;;;11.27;10.27;;;6.90;80.00;;;;;;5036332;28;20496;-82
2021/04/21 01:20:30;;;;;;;11.70;10.50;;;6.90;80.10;;;;;;5035980;28;20882;-82
2021/04/21 01:23:24;;;;;;;10.97;9.97;;;6.80;80.10;;;;;;5037124;28;20886;-82
2021/04/21 01:26:01;;;;;;;11.33;10.00;;;6.80;80.30;;;;;;5036461;28;20452;-82
2021/04/21 01:28:32;;;;;;;12.30;11.00;;;6.80;80.40;;;;;;5036632;28;20441;-82
2021/04/21 01:31:01;;;;;;;11.83;10.67;;;6.70;80.40;;;;;;5036388;28;20470;-82
2021/04/21 01:33:30;;;;;;;11.83;10.53;;;6.60;80.40;;;;;;5040352;28;20461;-82
2021/04/21 01:36:02;;;;;;;13.20;11.90;;;6.60;80.50;;;;;;5040946;28;20977;-82
2021/04/21 01:38:31;;;;;;;12.10;10.90;;;6.60;80.60;;;;;;5039742;28;20461;-82
2021/04/21 01:41:02;;;;;;;11.70;10.80;;;6.60;80.70;;;;;;5040322;28;20889;-82
2021/04/21 01:43:35;;;;;;;12.60;11.50;;;6.50;80.80;;;;;;5040376;28;20858;-82
2021/04/21 01:46:04;;;;;;;12.20;10.93;;;6.50;80.80;;;;;;5041374;28;20441;-82
2021/04/21 01:48:35;;;;;;;12.63;11.43;;;6.50;80.80;;;;;;5040149;28;20483;-82
2021/04/21 01:51:10;;;;;;;11.90;10.73;;;6.40;80.90;;;;;;5041447;28;20425;-82
2021/04/21 01:53:41;;;;;;;11.20;10.20;;;6.40;81.00;;;;;;5040246;28;20452;-82
2021/04/21 01:56:15;;;;;;;11.80;10.80;;;6.40;81.10;;;;;;5039691;28;20460;-82
2021/04/21 01:59:13;;;;;;;12.40;11.20;;;6.30;81.20;;;;;;5039912;28;20489;-82
2021/04/21 02:01:45;;;;;;;12.40;11.10;;;6.30;81.30;;;;;;5041294;28;20965;-82
2021/04/21 02:04:27;;;;;;;11.30;10.20;;;6.20;81.30;;;;;;5039433;28;20473;-82
2021/04/21 02:07:12;;;;;;;12.10;11.00;;;6.20;81.40;;;;;;5038397;28;20475;-82
2021/04/21 02:09:57;;;;;;;10.93;10.03;;;6.20;81.50;;;;;;5037628;28;20488;-82
2021/04/21 02:12:59;;;;;;;12.40;11.20;;;6.10;81.50;;;;;;5037875;28;20492;-81
2021/04/21 02:15:37;;;;;;;11.87;10.60;;;6.10;81.60;;;;;;5039012;28;20441;-82
2021/04/21 02:18:17;;;;;;;11.07;10.07;;;6.00;81.60;;;;;;5019633;28;20511;-82
2021/04/21 02:20:47;;;;;;;13.00;11.20;;;6.00;82.30;;;;;;5036480;28;20481;-82
2021/04/21 02:23:21;;;;;;;11.13;10.10;;;6.00;81.70;;;;;;5040610;28;20496;-82
2021/04/21 02:26:10;;;;;;;12.60;11.30;;;5.90;81.80;;;;;;5039547;28;20449;-82
2021/04/21 02:28:47;;;;;;;14.70;10.30;;;5.90;81.90;;;;;;5040525;28;20450;-82
2021/04/21 02:31:26;;;;;;;12.00;10.83;;;5.90;82.00;;;;;;5039872;28;20524;-82
2021/04/21 02:34:02;;;;;;;12.20;11.00;;;5.90;82.20;;;;;;5040288;28;20459;-82
2021/04/21 02:36:40;;;;;;;11.57;10.47;;;5.90;82.30;;;;;;5039167;28;20445;-82
2021/04/21 02:39:17;;;;;;;10.53;9.50;;;5.80;82.30;;;;;;5038739;28;20480;-82
2021/04/21 02:41:53;;;;;;;9.90;8.90;;;5.80;82.30;;;;;;5039781;28;20485;-82
2021/04/21 02:44:29;;;;;;;11.40;10.23;;;5.70;82.40;;;;;;5039167;28;20449;-82
2021/04/21 02:47:06;;;;;;;12.57;10.73;;;5.70;82.50;;;;;;5038479;28;20476;-82
2021/04/21 02:49:46;;;;;;;11.23;10.13;;;5.70;82.60;;;;;;5038279;28;20519;-82
2021/04/21 02:52:23;;;;;;;10.93;9.93;;;5.60;82.60;;;;;;5038585;28;20456;-82
2021/04/21 02:55:09;;;;;;;11.80;10.17;;;5.60;82.80;;;;;;5039869;28;20420;-82
2021/04/21 02:57:49;;;;;;;11.30;10.20;;;5.60;82.90;;;;;;5038272;28;20824;-82
2021/04/21 03:00:26;;;;;;;11.30;10.20;;;5.60;83.10;;;;;;5038340;28;20487;-81
2021/04/21 03:03:06;;;;;;;11.63;10.43;;;5.50;83.70;;;;;;5037976;28;20445;-81
2021/04/21 03:05:36;;;;;;;12.40;10.43;;;5.50;83.20;;;;;;5039887;28;20432;-82
2021/04/21 03:08:09;;;;;;;12.90;11.67;;;5.50;83.30;;;;;;5038737;28;20922;-81
2021/04/21 03:10:43;;;;;;;11.37;10.27;;;5.50;83.40;;;;;;5037659;28;20468;-81
2021/04/21 03:13:15;;;;;;;14.83;10.90;;;5.40;83.40;;;;;;5037711;28;20448;-81
2021/04/21 03:15:47;;;;;;;13.33;12.13;;;5.40;83.50;;;;;;5038621;28;20495;-82
2021/04/21 03:18:18;;;;;;;13.03;11.77;;;5.40;83.70;;;;;;5037777;28;20535;-82
2021/04/21 03:20:52;;;;;;;12.67;11.40;;;5.40;83.90;;;;;;5039645;28;20453;-82
2021/04/21 03:23:22;;;;;;;13.10;11.80;;;5.30;84.70;;;;;;5038029;28;20960;-82
2021/04/21 03:25:53;;;;;;;12.57;11.33;;;5.30;84.10;;;;;;5038930;28;20918;-82
2021/04/21 03:28:22;;;;;;;16.23;14.63;;;5.30;84.40;;;;;;5038032;28;20510;-82
2021/04/21 03:30:53;;;;;;;14.80;13.40;;;5.30;84.50;;;;;;5037159;28;20563;-82
2021/04/21 03:33:25;;;;;;;13.80;12.40;;;5.30;84.70;;;;;;5037432;28;20881;-82
2021/04/21 03:35:53;;;;;;;13.90;12.50;;;5.30;84.80;;;;;;5037180;28;20464;-82
2021/04/21 03:38:21;;;;;;;14.10;12.57;;;5.30;85.00;;;;;;5037543;28;20475;-82
2021/04/21 03:40:49;;;;;;;13.20;12.00;;;5.20;85.00;;;;;;5037695;28;20475;-82
2021/04/21 03:43:19;;;;;;;13.40;12.10;;;5.20;85.10;;;;;;5037218;28;20977;-82
2021/04/21 03:45:49;;;;;;;12.97;11.67;;;5.20;85.20;;;;;;5036272;28;20446;-82
2021/04/21 03:48:18;;;;;;;12.20;11.10;;;5.20;85.30;;;;;;5035662;28;20459;-82
2021/04/21 03:50:50;;;;;;;14.40;13.20;;;5.20;85.40;;;;;;5036692;28;20476;-81
2021/04/21 03:53:20;;;;;;;13.30;11.47;;;5.20;85.50;;;;;;5037174;28;20479;-81
2021/04/21 03:55:49;;;;;;;13.10;11.80;;;5.20;85.60;;;;;;5036716;28;20453;-81
2021/04/21 03:58:18;;;;;;;12.73;11.53;;;5.20;85.60;;;;;;5038885;28;20468;-82
2021/04/21 04:00:50;;;;;;;13.60;12.37;;;5.20;85.70;;;;;;5036578;28;20976;-82
2021/04/21 04:03:27;;;;;;;13.40;12.27;;;5.20;85.80;;;;;;5040222;28;20452;-82
2021/04/21 04:06:13;;;;;;;14.20;12.63;;;5.20;85.90;;;;;;5037588;28;20466;-81
2021/04/21 04:08:47;;;;;;;14.40;13.00;;;5.10;85.80;;;;;;5037733;28;20475;-81
2021/04/21 04:11:16;;;;;;;13.07;11.83;;;5.10;85.80;;;;;;5037145;28;20459;-82
2021/04/21 04:13:47;;;;;;;14.53;13.13;;;5.10;86.00;;;;;;5036480;28;20458;-82
2021/04/21 04:16:15;;;;;;;13.77;12.47;;;5.10;86.10;;;;;;5037220;28;20449;-81
2021/04/21 04:18:43;;;;;;;13.80;12.23;;;5.10;86.10;;;;;;5037872;28;20469;-82
2021/04/21 04:21:13;;;;;;;14.33;12.93;;;5.10;86.20;;;;;;5036644;28;20444;-82
2021/04/21 04:23:42;;;;;;;14.20;12.80;;;5.00;86.20;;;;;;5035445;28;20857;-82
2021/04/21 04:26:10;;;;;;;13.97;12.70;;;5.20;87.80;;;;;;5036744;28;20655;-82
2021/04/21 04:28:38;;;;;;;15.07;13.57;;;5.10;87.30;;;;;;5036726;28;20488;-82
2021/04/21 04:31:07;;;;;;;14.97;13.63;;;5.10;87.30;;;;;;5038085;28;20421;-82
2021/04/21 04:33:35;;;;;;;14.60;12.97;;;5.10;87.30;;;;;;5038442;28;20950;-82
2021/04/21 04:36:03;;;;;;;14.37;13.07;;;5.10;87.50;;;;;;5037293;28;20454;-82
2021/04/21 04:38:33;;;;;;;15.10;13.70;;;5.00;87.50;;;;;;5036661;28;20460;-82
2021/04/21 04:41:01;;;;;;;16.20;14.60;;;5.00;87.60;;;;;;5036745;28;20978;-80
2021/04/21 04:43:30;;;;;;;16.33;14.83;;;5.00;87.70;;;;;;5037569;28;20470;-80
2021/04/21 04:46:01;;;;;;;16.57;14.87;;;5.00;87.90;;;;;;5037588;28;20457;-80
2021/04/21 04:48:39;;;;;;;17.73;15.80;;;5.00;88.10;;;;;;5037945;28;20548;-80
2021/04/21 04:51:10;;;;;;;15.93;14.50;;;5.00;88.20;;;;;;5038661;28;20451;-80
2021/04/21 04:53:41;;;;;;;16.70;15.07;;;5.00;88.40;;;;;;5036640;28;20487;-82
2021/04/21 04:56:08;;;;;;;16.60;14.93;;;5.00;88.50;;;;;;5038459;28;20479;-82
2021/04/21 04:58:39;;;;;;;17.00;15.40;;;4.90;88.60;;;;;;5037333;28;20491;-82
2021/04/21 05:01:09;;;;;;;17.60;16.03;;;5.00;88.80;;;;;;5036861;28;20849;-82
2021/04/21 05:03:49;;;;;;;16.40;14.80;;;5.00;88.90;;;;;;5036265;28;20456;-82
2021/04/21 05:06:24;;;;;;;17.17;15.60;;;5.00;89.10;;;;;;5038926;28;20440;-82
2021/04/21 05:08:55;;;;;;;17.30;15.60;;;5.00;89.90;;;;;;5041412;28;20448;-81
2021/04/21 05:11:23;;;;;;;18.67;16.97;;;5.00;89.40;;;;;;5042120;28;20880;-81
2021/04/21 05:13:52;;;;;;;16.60;15.10;;;5.00;89.50;;;;;;5042196;28;20448;-81
2021/04/21 05:16:57;;;;;;;18.50;16.80;;;5.10;89.80;;;;;;5041691;28;20479;-81
2021/04/21 05:19:57;;;;;;;18.00;16.20;;;5.10;90.00;;;;;;5041718;28;20560;-81
2021/04/21 05:23:04;;;;;;;17.87;16.27;;;5.10;90.00;;;;;;5043054;28;20793;-81
2021/04/21 05:26:10;;;;;;;19.30;17.60;;;5.10;90.10;;;;;;5039339;28;20474;-81
2021/04/21 05:29:27;;;;;;;19.07;17.30;;;5.20;90.20;;;;;;5041313;28;20474;-81
2021/04/21 05:32:42;;;;;;;18.87;17.17;;;5.20;90.40;;;;;;4964817;28;20475;-81
2021/04/21 05:36:00;;;;;;;18.83;17.13;;;5.20;90.40;;;;;;5040976;28;20442;-81
2021/04/21 05:39:07;;;;;;;19.00;17.30;;;5.30;90.50;;;;;;5040861;28;20468;-81
2021/04/21 05:42:25;;;;;;;17.73;16.10;;;5.30;90.60;;;;;;5041090;28;20444;-81
2021/04/21 05:45:23;;;;;;;19.40;17.40;;;5.40;90.80;;;;;;5041098;28;20487;-81
2021/04/21 05:48:29;;;;;;;18.37;16.57;;;5.50;91.00;;;;;;5042964;28;20424;-81
2021/04/21 05:51:40;;;;;;;18.10;16.27;;;5.50;91.20;;;;;;5041041;28;20472;-81
2021/04/21 05:54:46;;;;;;;19.47;17.53;;;5.70;91.30;;;;;;5040444;28;20444;-82
2021/04/21 05:57:51;;;;;;;18.00;16.40;;;5.80;91.60;;;;;;5028487;28;20440;-82
2021/04/21 06:00:58;;;;;;;15.77;14.47;;;5.90;91.70;;;;;;5042979;28;20456;-82
2021/04/21 06:03:27;;;;;;;15.80;14.40;;;6.20;91.90;;;;;;5040672;28;20449;-83
2021/04/21 06:06:01;;;;;;;15.50;14.03;;;6.40;92.00;;;;;;5040202;28;20479;-82
2021/04/21 06:08:30;;;;;;;15.40;14.00;;;6.70;92.10;;;;;;5040694;28;20505;-82
2021/04/21 06:10:59;;;;;;;15.40;13.90;;;6.90;92.20;;;;;;5040608;28;20492;-82
2021/04/21 06:13:28;;;;;;;15.20;13.80;;;7.20;92.20;;;;;;5042523;28;20441;-82
2021/04/21 06:15:57;;;;;;;13.87;12.67;;;7.50;92.30;;;;;;5041458;28;20454;-82
2021/04/21 06:18:27;;;;;;;13.93;12.57;;;7.80;92.40;;;;;;5041590;28;20474;-82
2021/04/21 06:20:54;;;;;;;13.67;12.27;;;8.10;92.40;;;;;;5042468;28;20478;-82
2021/04/21 06:23:24;;;;;;;13.13;11.73;;;8.40;92.30;;;;;;5041537;28;20449;-82
2021/04/21 06:26:02;;;;;;;13.40;12.20;;;8.60;92.10;;;;;;5040527;28;20445;-82
2021/04/21 06:28:31;;;;;;;13.70;12.33;;;9.00;91.70;;;;;;5042944;28;20181;-82
2021/04/21 06:31:05;;;;;;;13.30;12.10;;;9.30;91.70;;;;;;5041217;28;20478;-83
2021/04/21 06:33:36;;;;;;;13.07;11.88;;;9.50;91.50;;;;;;5043751;28;20449;-83
2021/04/21 06:36:05;;;;;;;13.20;11.83;;;9.70;91.30;;;;;;5044635;28;20199;-82
2021/04/21 06:38:34;;;;;;;13.23;11.90;;;9.90;91.10;;;;;;5053668;28;20451;-82
2021/04/21 06:41:01;;;;;;;12.40;11.30;;;10.10;90.60;;;;;;5054987;28;20466;-82
2021/04/21 06:43:31;;;;;;;11.80;10.60;;;10.30;90.50;;;;;;5054619;28;20466;-81
2021/04/21 06:46:00;;;;;;;10.83;9.80;;;10.50;90.30;;;;;;5055822;28;20443;-82
2021/04/21 06:48:29;;;;;;;11.23;10.03;;;10.60;90.20;;;;;;5055538;28;20444;-83
2021/04/21 06:51:06;;;;;;;10.10;9.20;;;10.80;90.20;;;;;;5046795;28;20455;-83
2021/04/21 06:53:34;;;;;;;10.00;9.00;;;11.00;90.00;;;;;;5044427;28;20486;-83
2021/04/21 06:56:02;;;;;;;10.07;7.80;;;11.20;89.90;;;;;;5042950;28;20980;-84
2021/04/21 06:58:30;;;;;;;10.63;9.63;;;11.50;89.30;;;;;;5042286;28;20471;-83
2021/04/21 07:01:08;;;;;;;10.80;9.70;;;11.70;88.80;;;;;;5042460;28;21065;-82
2021/04/21 07:03:35;;;;;;;11.57;10.47;;;11.80;88.20;;;;;;5044078;28;20466;-82
2021/04/21 07:06:05;;;;;;;12.00;10.90;;;11.90;87.90;;;;;;5041932;28;20440;-83
2021/04/21 07:08:34;;;;;;;10.93;9.70;;;12.10;87.60;;;;;;5042994;28;20453;-83
2021/04/21 07:11:17;;;;;;;12.33;10.60;;;12.10;87.20;;;;;;5042323;28;20470;-82
2021/04/21 07:13:47;;;;;;;13.07;11.77;;;12.20;87.00;;;;;;5042667;28;21061;-82
2021/04/21 07:21:54;;;;;;;13.70;12.37;;;12.50;86.60;;;;;;5037465;28;20536;-82
2021/04/21 07:24:29;;;;;;;12.30;11.10;;;12.60;86.70;;;;;;5038237;28;20426;-83
2021/04/21 07:26:57;;;;;;;15.80;14.20;;;12.70;86.90;;;;;;5038544;28;20432;-83
2021/04/21 07:29:26;;;;;;;14.20;12.73;;;12.90;87.10;;;;;;5054206;28;20482;-82
2021/04/21 07:31:53;;;;;;;16.00;14.10;;;13.10;87.20;;;;;;5038169;28;20436;-83
2021/04/21 07:34:30;;;;;;;15.60;14.00;;;13.20;87.30;;;;;;5037032;28;20426;-82
2021/04/21 07:36:59;;;;;;;20.70;16.00;;;13.40;87.40;;;;;;5038554;28;20431;-83
2021/04/21 07:39:36;;;;;;;16.07;14.57;;;13.50;88.10;;;;;;5038460;28;20458;-83
2021/04/21 07:42:04;;;;;;;16.00;14.40;;;13.70;87.70;;;;;;5036959;28;20446;-83
2021/04/21 07:44:36;;;;;;;15.70;14.20;;;13.80;87.60;;;;;;5037472;28;20509;-83
2021/04/21 07:47:11;;;;;;;17.53;15.70;;;13.90;87.60;;;;;;5036674;28;20942;-83
2021/04/21 07:49:44;;;;;;;16.97;15.37;;;14.00;87.80;;;;;;5036380;28;20488;-83
2021/04/21 07:52:22;;;;;;;16.00;14.50;;;14.10;88.00;;;;;;5037224;28;20440;-84
2021/04/21 07:54:50;;;;;;;20.13;16.47;;;14.20;88.00;;;;;;5036065;28;20418;-83
2021/04/21 07:57:18;;;;;;;19.47;17.37;;;14.20;88.00;;;;;;5036425;28;20443;-83
2021/04/21 07:59:47;;;;;;;21.27;17.70;;;14.30;88.80;;;;;;5036858;28;21001;-83
2021/04/21 08:02:20;;;;;;;19.67;17.63;;;14.40;88.50;;;;;;5036577;28;20894;-83
2021/04/21 08:04:51;;;;;;;20.53;18.07;;;14.50;88.60;;;;;;5036980;28;20912;-83
2021/04/21 08:07:35;;;;;;;21.90;19.70;;;14.60;89.00;;;;;;5036576;28;20472;-83
2021/04/21 08:10:06;;;;;;;22.33;20.03;;;14.70;89.00;;;;;;5036930;28;20467;-83
2021/04/21 08:12:36;;;;;;;21.83;19.57;;;14.80;89.00;;;;;;5034492;28;20790;-82
2021/04/21 08:22:06;;;;;;;22.20;20.00;;;14.90;90.00;;;;;;4979923;28;20432;-83
2021/04/21 08:25:06;;;;;;;24.90;22.20;;;14.90;90.10;;;;;;4995927;28;20441;-83
2021/04/21 08:34:10;;;;;;;26.57;23.83;;;14.80;90.40;;;;;;5037831;28;20416;-83
2021/04/21 08:37:36;;;;;;;25.50;22.67;;;14.70;90.70;;;;;;5037795;28;20438;-82
2021/04/21 08:40:25;;;;;;;29.27;24.40;;;14.60;90.80;;;;;;5035802;28;20489;-82
2021/04/21 08:42:55;;;;;;;27.50;22.73;;;14.40;90.80;;;;;;5036269;28;20954;-82
2021/04/21 08:45:22;;;;;;;26.60;22.70;;;14.40;90.90;;;;;;5036197;28;20439;-83
2021/04/21 08:47:50;;;;;;;25.90;23.20;;;14.40;91.00;;;;;;5036401;28;20933;-82
2021/04/21 08:50:30;;;;;;;24.90;21.27;;;14.30;91.00;;;;;;5036685;28;20459;-82
2021/04/21 08:53:07;;;;;;;25.83;20.90;;;14.20;91.00;;;;;;5037496;28;20488;-82
2021/04/21 08:55:38;;;;;;;24.43;19.33;;;14.10;91.10;;;;;;5038702;28;20443;-83
2021/04/21 08:58:09;;;;;;;23.87;19.20;;;14.10;91.20;;;;;;5043971;28;20444;-82
2021/04/21 09:01:18;;;;;;;29.10;21.70;;;14.20;91.50;;;;;;5039792;28;20988;-83
2021/04/21 09:04:04;;;;;;;28.13;22.17;;;14.30;91.20;;;;;;5034694;28;20468;-83
2021/04/21 09:06:36;;;;;;;26.70;20.63;;;14.50;91.20;;;;;;5034354;28;20501;-83
2021/04/21 09:09:07;;;;;;;27.00;20.70;;;14.50;91.20;;;;;;5039134;28;20444;-84
2021/04/21 09:11:36;;;;;;;24.57;20.23;;;14.60;91.20;;;;;;5037461;28;20806;-83
2021/04/21 09:14:04;;;;;;;26.17;20.03;;;14.60;91.20;;;;;;5034681;28;20936;-83
2021/04/21 09:16:40;;;;;;;26.83;22.50;;;14.50;91.00;;;;;;5035178;28;20442;-83
2021/04/21 09:19:12;;;;;;;26.73;19.67;;;14.40;91.00;;;;;;5035052;28;20450;-82
2021/04/21 09:21:43;;;;;;;26.20;20.77;;;14.30;91.10;;;;;;5034675;28;20516;-82
2021/04/21 09:24:26;;;;;;;23.60;19.27;;;14.40;91.20;;;;;;5034603;28;20418;-82
2021/04/21 09:26:55;;;;;;;23.97;18.83;;;14.40;91.10;;;;;;5034793;28;20422;-83
2021/04/21 09:29:26;;;;;;;23.60;19.33;;;14.40;91.10;;;;;;5035251;28;20498;-82
2021/04/21 09:32:07;;;;;;;22.30;19.93;;;14.40;91.30;;;;;;5035055;28;20417;-83
2021/04/21 09:34:59;;;;;;;22.93;19.63;;;14.50;91.20;;;;;;5034321;28;20886;-83
2021/04/21 09:37:27;;;;;;;21.53;18.33;;;14.60;91.00;;;;;;5035321;28;20455;-83
2021/04/21 09:39:54;;;;;;;22.67;18.53;;;14.60;91.00;;;;;;5035943;28;20890;-83
2021/04/21 09:42:29;;;;;;;21.48;17.85;;;14.60;91.00;;;;;;5035660;28;20385;-83
2021/04/21 09:45:10;;;;;;;;;;;;;;;;;;;;;
2021/04/21 09:48:10;;;;;;;22.37;19.93;;;14.60;91.00;;;;;;5036530;28;20520;-83
2021/04/21 09:50:38;;;;;;;26.83;20.70;;;14.60;91.00;;;;;;5035942;28;20468;-81
2021/04/21 09:53:23;;;;;;;24.03;21.40;;;14.60;91.00;;;;;;5039034;28;20426;-82
2021/04/21 09:56:11;;;;;;;24.70;22.00;;;14.50;90.90;;;;;;5040665;28;20432;-81
2021/04/21 09:58:50;;;;;;;26.40;20.27;;;14.40;91.10;;;;;;5036526;28;20948;-82
2021/04/21 10:01:25;;;;;;;22.30;18.50;;;14.20;91.10;;;;;;5041101;28;20399;-81
2021/04/21 10:04:12;;;;;;;20.87;17.13;;;14.00;91.10;;;;;;5046135;28;20610;-82
2021/04/21 10:06:42;;;;;;;14.50;12.87;;;13.90;91.30;;;;;;5040433;28;20463;-82
2021/04/21 10:09:27;;;;;;;16.70;14.90;;;14.00;91.40;;;;;;5042332;28;20812;-82
2021/04/21 10:12:14;;;;;;;15.07;12.87;;;14.10;91.50;;;;;;5042448;28;20439;-82
2021/04/21 10:15:07;;;;;;;12.80;10.73;;;14.10;91.40;;;;;;5041478;28;20429;-82
2021/04/21 10:17:43;;;;;;;9.80;8.80;;;14.00;91.30;;;;;;5039660;28;20502;-82
2021/04/21 10:20:14;;;;;;;10.73;9.70;;;13.80;91.30;;;;;;5039388;28;20510;-81
2021/04/21 10:22:47;;;;;;;10.50;9.50;;;13.70;91.30;;;;;;5038944;28;20437;-82
2021/04/21 10:25:35;;;;;;;12.80;9.00;;;13.60;91.30;;;;;;5039116;28;20452;-82
2021/04/21 10:28:07;;;;;;;11.70;8.73;;;13.50;91.30;;;;;;5039123;28;20980;-83
2021/04/21 10:30:40;;;;;;;11.90;10.20;;;13.40;91.30;;;;;;5038364;28;20434;-83
2021/04/21 10:33:09;;;;;;;12.37;10.30;;;13.40;91.20;;;;;;5039284;28;20438;-83
2021/04/21 10:35:39;;;;;;;11.83;10.50;;;13.30;91.20;;;;;;5038872;28;20918;-83
2021/04/21 10:38:14;;;;;;;12.30;11.10;;;13.30;91.30;;;;;;5038056;28;20500;-83
2021/04/21 10:40:42;;;;;;;15.97;10.23;;;13.30;91.40;;;;;;5038862;28;20972;-83
2021/04/21 10:43:09;;;;;;;13.47;11.13;;;13.20;91.30;;;;;;5037593;28;20450;-82
2021/04/21 10:45:47;;;;;;;12.33;11.00;;;13.10;91.30;;;;;;5037667;28;20542;-83
2021/04/21 10:48:39;;;;;;;14.90;9.53;;;13.00;91.40;;;;;;5038669;28;20762;-83
2021/04/21 10:51:37;;;;;;;10.27;7.57;;;13.00;91.50;;;;;;5036481;28;20424;-82
2021/04/21 10:54:06;;;;;;;7.33;6.53;;;13.10;91.60;;;;;;5037279;28;20204;-83
2021/04/21 10:56:35;;;;;;;8.80;6.73;;;13.10;91.50;;;;;;5037243;28;20480;-82
2021/04/21 10:59:04;;;;;;;8.40;5.57;;;13.10;91.50;;;;;;5037524;28;20450;-82
2021/04/21 11:01:40;;;;;;;6.53;4.60;;;13.00;91.40;;;;;;5037158;28;20866;-83
2021/04/21 11:04:12;;;;;;;7.23;4.63;;;13.10;91.10;;;;;;5037713;28;20185;-83
2021/04/21 11:06:48;;;;;;;6.87;2.60;;;13.10;91.00;;;;;;5038062;28;20423;-82
2021/04/21 11:09:19;;;;;;;5.83;2.30;;;13.00;90.80;;;;;;5038867;28;20549;-82
2021/04/21 11:11:49;;;;;;;3.37;2.40;;;12.90;90.70;;;;;;5039572;28;20423;-83
2021/04/21 11:14:18;;;;;;;4.03;1.80;;;12.80;90.30;;;;;;5037636;28;20903;-82
2021/04/21 11:16:46;;;;;;;5.00;1.90;;;12.80;90.00;;;;;;5037953;28;20426;-83
2021/04/21 11:19:31;;;;;;;5.50;1.67;;;12.70;89.60;;;;;;5038481;28;20540;-83
2021/04/21 11:22:28;;;;;;;3.93;2.23;;;12.70;88.60;;;;;;5037872;28;20440;-83
2021/04/21 11:25:22;;;;;;;5.30;1.93;;;12.70;88.70;;;;;;5038105;28;20439;-82
2021/04/21 11:27:49;;;;;;;6.90;1.87;;;12.70;88.70;;;;;;5037325;28;20459;-82
2021/04/21 11:30:50;;;;;;;3.03;1.77;;;12.70;88.90;;;;;;5036786;28;20873;-82
2021/04/21 11:33:55;;;;;;;4.70;1.60;;;12.80;88.10;;;;;;5036932;28;20446;-83
2021/04/21 11:36:57;;;;;;;4.33;2.10;;;13.00;87.50;;;;;;5037239;28;20825;-83
2021/04/21 11:40:08;;;;;;;5.90;2.47;;;13.00;86.90;;;;;;4963553;28;20537;-83
2021/04/21 11:42:38;;;;;;;7.47;2.20;;;13.10;87.00;;;;;;4977603;28;20505;-83
2021/04/21 11:45:25;;;;;;;5.10;1.97;;;13.10;87.10;;;;;;5020655;28;20446;-82
2021/04/21 11:47:55;;;;;;;3.50;2.33;;;13.20;86.80;;;;;;5037544;28;20515;-82
2021/04/21 11:50:31;;;;;;;6.57;2.60;;;13.20;86.70;;;;;;5037018;28;20994;-82
2021/04/21 11:53:02;;;;;;;8.67;3.10;;;13.30;86.60;;;;;;5036104;28;20501;-82
2021/04/21 11:55:38;;;;;;;6.73;2.10;;;13.20;86.40;;;;;;5038323;28;20412;-83
2021/04/21 11:58:09;;;;;;;3.50;1.70;;;13.10;86.00;;;;;;5036588;28;20455;-82
2021/04/21 12:00:39;;;;;;;5.20;2.93;;;13.10;86.30;;;;;;5036819;28;20482;-82
2021/04/21 12:03:13;;;;;;;4.40;1.90;;;13.00;85.70;;;;;;5036337;28;20451;-83
2021/04/21 12:05:47;;;;;;;3.60;1.90;;;13.00;85.50;;;;;;5038464;28;20867;-83
2021/04/21 12:08:22;;;;;;;4.30;2.10;;;13.00;85.30;;;;;;5037918;28;20464;-81
2021/04/21 12:10:50;;;;;;;4.17;2.20;;;13.10;85.70;;;;;;5036566;28;20886;-81
2021/04/21 12:13:27;;;;;;;2.97;2.07;;;13.10;85.50;;;;;;5037067;28;20482;-81
2021/04/21 12:15:58;;;;;;;6.40;2.40;;;13.20;85.00;;;;;;5035671;28;20441;-82
2021/04/21 12:18:31;;;;;;;5.90;2.65;;;13.30;85.40;;;;;;5035091;28;20483;-81
2021/04/21 12:20:59;;;;;;;6.57;2.43;;;13.40;84.80;;;;;;5037155;28;20247;-82
2021/04/21 12:23:29;;;;;;;8.27;2.00;;;13.40;84.80;;;;;;5037268;28;20406;-82
2021/04/21 12:25:57;;;;;;;5.77;1.90;;;13.40;84.80;;;;;;5036417;28;20436;-82
2021/04/21 12:28:25;;;;;;;5.00;2.03;;;13.40;84.00;;;;;;5036285;28;20456;-82
2021/04/21 12:30:58;;;;;;;5.40;1.70;;;13.30;83.70;;;;;;5036206;28;20441;-82
2021/04/21 12:33:26;;;;;;;5.37;1.80;;;13.30;82.90;;;;;;5036872;28;21017;-82
2021/04/21 12:35:56;;;;;;;5.33;1.93;;;13.30;82.50;;;;;;5036281;28;20905;-82
2021/04/21 12:38:30;;;;;;;5.37;1.80;;;13.30;81.90;;;;;;5036344;28;20825;-82
2021/04/21 12:40:59;;;;;;;2.57;1.70;;;13.20;81.10;;;;;;5036325;28;20477;-82
2021/04/21 12:43:31;;;;;;;7.30;2.27;;;13.20;80.80;;;;;;5037735;28;20438;-82
2021/04/21 12:46:18;;;;;;;3.13;1.47;;;13.20;80.90;;;;;;5036968;28;20480;-82
2021/04/21 12:49:05;;;;;;;5.00;1.77;;;13.20;80.70;;;;;;5036216;28;20491;-82
2021/04/21 12:51:32;;;;;;;6.63;1.90;;;13.10;80.30;;;;;;5037278;28;20469;-82
2021/04/21 12:54:02;;;;;;;5.70;2.40;;;13.00;80.10;;;;;;5040832;28;20455;-82
2021/04/21 12:56:37;;;;;;;8.07;2.47;;;13.00;80.00;;;;;;5038436;28;20443;-82
2021/04/21 12:59:16;;;;;;;7.57;2.20;;;12.90;79.60;;;;;;5038577;28;20445;-82
2021/04/21 13:01:44;;;;;;;7.70;2.87;;;12.80;79.80;;;;;;5038826;28;20439;-83
2021/04/21 13:04:15;;;;;;;5.97;2.30;;;12.80;79.80;;;;;;5036025;28;20455;-82
2021/04/21 13:06:44;;;;;;;6.23;3.20;;;12.80;80.10;;;;;;5036140;28;20847;-81
2021/04/21 13:09:16;;;;;;;4.67;2.03;;;12.80;80.20;;;;;;5035802;28;20467;-82
2021/04/21 13:11:49;;;;;;;7.03;3.07;;;12.80;80.30;;;;;;5035508;28;20497;-82
2021/04/21 13:14:21;;;;;;;7.60;2.60;;;12.80;80.20;;;;;;5036051;28;20448;-82
2021/04/21 13:16:52;;;;;;;6.27;2.53;;;12.80;80.20;;;;;;5058224;23;20566;-84
2021/04/21 13:19:22;;;;;;;11.63;3.57;;;12.80;80.10;;;;;;5064701;28;20475;-84
2021/04/21 13:22:01;;;;;;;8.88;3.30;;;12.80;80.20;;;;;;5065974;28;20418;-83
2021/04/21 13:24:29;;;;;;;9.93;4.10;;;12.80;80.30;;;;;;5065706;28;20198;-83
2021/04/21 13:26:58;;;;;;;6.50;3.40;;;12.80;80.40;;;;;;5069121;28;20455;-83
2021/04/21 13:29:32;;;;;;;8.33;3.20;;;12.80;81.20;;;;;;5067061;28;20470;-83
2021/04/21 13:32:07;;;;;;;10.80;4.07;;;12.80;80.50;;;;;;5066146;28;20465;-82
2021/04/21 13:34:35;;;;;;;9.43;4.27;;;12.80;80.50;;;;;;5064575;28;20220;-82
2021/04/21 13:37:03;;;;;;;4.57;3.37;;;12.70;80.40;;;;;;5070265;28;20451;-82
2021/04/21 13:39:37;;;;;;;9.17;3.73;;;12.80;81.40;;;;;;5070853;28;20545;-82
2021/04/21 13:42:06;;;;;;;10.43;4.27;;;12.80;80.20;;;;;;5070603;28;20438;-82